Houlton, ME

05:29 EDT le 29 juillet 2015 (GMT -0400)
Houlton International | | Change Station
CLOSE
Current Station
Aéroport
Location: Houlton,
Altitude: 492 ft
Stations météo à proximité

Alt. 492 ft 46.12 °N, 67.79 °W | Updated 36 minutes ago

Ciel dégagé
Ciel dégagé
52 ° F
Paraît 52 ° F
N
0
Vent Variable Vent de Nord

Aujourd'hui
Haut(e) -- | Bas -- ° F
--% Risque de précip.
Hier
Haut(e) -- | Bas -- ° F
Precip. -- pouce
5:09 AM 8:05 PM
Lune gibbeuse croissante, 94% visible
Pression 29.91 pouce
Visibilité 7.0 Miles terrestres
Nuages Ciel dégagé
Point de rosée 50 ° F
Humidité 93%
Précipitations 0.00 pouce
Profondeur de la couche neigeuse Non disponible.
UV 0 sur 12
Pollen 3.00 sur 12
Qualité de l'air Non disponible.
Flu Activity Non disponible.
METAR KHUL 290853Z AUTO 00000KT 7SM CLR 11/10 A2991 RMK AO2 SLP127 T01110100 53005

More Conditions Fewer Conditions

Pression 29.91 pouce
Visibilité 7.0 Miles terrestres
Nuages Ciel dégagé
Point de rosée 50 ° F
Humidité 93%
Précipitations 0.00 pouce
Profondeur de la couche neigeuse Non disponible.
UV 0 sur 12
Pollen 3.00 sur 12
Qualité de l'air Non disponible.
Flu Activity Non disponible.
METAR KHUL 290853Z AUTO 00000KT 7SM CLR 11/10 A2991 RMK AO2 SLP127 T01110100 53005

More Conditions Fewer Conditions

10-Day Weather Forecast

×

Almanac

Astronomie

Jul. 29, 2015 Lever Coucher
Temps réel
Crépuscule civil
Crépuscule nautique
Crépuscule astronomique
Lune
Durée de lumière visible
Longueur du jour
Tomorrow will be .
, % of the Moon is Illuminated

Extrêmes aujourd'hui

State Highs State Lows

Community

WunderPhotos

Upload Photos

1,842,068 Photos téléchargées !

WunderBlogs® & News

Nearby

Qualité de l'air

  Qualité de l'air Indice de la qualité de l'air Polluant
Not available.

Épaisseur de neige

Station Depth Altitude

Activité sismique

Ville Distance Mag. Time & Date
Minimum magnitude displayed is 2.5.

Températures des eaux côtières

Lieu Température

Stations

Stations météo à proximité

Emplacement de la station Température Refroidissement éolien Point de rosée Humidité Vent Precip. Alt. Mise à jour Type